Time;durP1;ratioP1;P1;durP2;ratioP2;P2;SDS_P1;SDS_P2;PMS_P1;PMS_P2;Temp;Humidity;BMP_temperature;BMP_pressure;BME280_temperature;BME280_humidity;BME280_pressure;Samples;Min_cycle;Max_cycle;Signal;HPM_P1;HPM_P2
2022/05/12 00:00:49;;;;;;;7.18;5.80;;;;;;;;;;6214780;23;20014;-77
2022/05/12 00:03:17;;;;;;;6.60;5.97;;;;;;;;;;6214884;23;20035;-77
2022/05/12 00:05:43;;;;;;;6.07;5.57;;;;;;;;;;6214929;23;20059;-77
2022/05/12 00:08:10;;;;;;;6.30;5.05;;;;;;;;;;6214815;23;20015;-78
2022/05/12 00:10:36;;;;;;;6.22;5.10;;;;;;;;;;6214593;23;20008;-77
2022/05/12 00:13:03;;;;;;;6.05;5.30;;;;;;;;;;6215070;23;20009;-77
2022/05/12 00:15:34;;;;;;;7.85;6.05;;;;;;;;;;6214851;23;20004;-77
2022/05/12 00:18:02;;;;;;;6.30;5.70;;;;;;;;;;6214874;23;20090;-78
2022/05/12 00:20:28;;;;;;;7.47;5.50;;;;;;;;;;6214662;23;20095;-78
2022/05/12 00:23:13;;;;;;;6.55;5.70;;;;;;;;;;6214647;23;20092;-77
2022/05/12 00:25:40;;;;;;;6.60;6.00;;;;;;;;;;6214924;23;20043;-78
2022/05/12 00:28:06;;;;;;;7.28;5.63;;;;;;;;;;6214759;23;20344;-77
2022/05/12 00:30:32;;;;;;;7.40;6.65;;;;;;;;;;6214671;23;20051;-77
2022/05/12 00:32:58;;;;;;;6.75;5.97;;;;;;;;;;6214817;23;20115;-76
2022/05/12 00:35:25;;;;;;;6.32;5.72;;;;;;;;;;6214541;23;20000;-78
2022/05/12 00:37:51;;;;;;;6.88;5.32;;;;;;;;;;6214761;23;20487;-77
2022/05/12 00:40:17;;;;;;;7.22;6.53;;;;;;;;;;6214378;23;20011;-79
2022/05/12 00:42:57;;;;;;;9.15;6.38;;;;;;;;;;6214597;23;20420;-78
2022/05/12 00:45:24;;;;;;;8.63;5.97;;;;;;;;;;6214340;23;20005;-78
2022/05/12 00:47:50;;;;;;;6.35;4.82;;;;;;;;;;6214659;23;20436;-78
2022/05/12 00:50:17;;;;;;;7.82;5.88;;;;;;;;;;6214341;23;20032;-78
2022/05/12 00:52:43;;;;;;;6.72;5.53;;;;;;;;;;6214662;23;20000;-78
2022/05/12 00:55:12;;;;;;;7.32;5.30;;;;;;;;;;6214482;23;20027;-78
2022/05/12 00:57:40;;;;;;;6.50;5.90;;;;;;;;;;6214634;23;20016;-77
2022/05/12 01:00:08;;;;;;;7.30;5.47;;;;;;;;;;6214257;23;20012;-77
2022/05/12 01:02:36;;;;;;;7.15;6.15;;;;;;;;;;6214655;23;20059;-78
2022/05/12 01:05:03;;;;;;;7.50;6.00;;;;;;;;;;6214291;23;20008;-77
2022/05/12 01:07:29;;;;;;;6.43;5.22;;;;;;;;;;6214752;23;20012;-78
2022/05/12 01:09:56;;;;;;;5.63;5.10;;;;;;;;;;6214352;23;20016;-77
2022/05/12 01:12:22;;;;;;;6.97;6.03;;;;;;;;;;6214341;23;19997;-78
2022/05/12 01:14:48;;;;;;;7.15;6.25;;;;;;;;;;6217600;23;20004;-78
2022/05/12 01:17:15;;;;;;;7.20;5.90;;;;;;;;;;6217597;23;20020;-78
2022/05/12 01:19:41;;;;;;;6.72;5.97;;;;;;;;;;6217486;23;20387;-77
2022/05/12 01:22:09;;;;;;;7.47;6.43;;;;;;;;;;6217211;23;20310;-77
2022/05/12 01:24:40;;;;;;;6.03;5.38;;;;;;;;;;6217776;23;20004;-78
2022/05/12 01:29:53;;;;;;;6.90;6.20;;;;;;;;;;6217228;23;20443;-78
2022/05/12 01:32:20;;;;;;;6.65;5.82;;;;;;;;;;6217786;23;20011;-77
2022/05/12 01:34:47;;;;;;;6.45;5.85;;;;;;;;;;6217455;23;20004;-77
2022/05/12 01:37:13;;;;;;;5.63;5.13;;;;;;;;;;6217388;23;20031;-78
2022/05/12 01:39:39;;;;;;;6.45;5.40;;;;;;;;;;6217334;23;20352;-77
2022/05/12 01:42:07;;;;;;;8.38;5.47;;;;;;;;;;6217276;23;20489;-77
2022/05/12 01:44:34;;;;;;;7.05;5.43;;;;;;;;;;6217672;23;20009;-78
2022/05/12 01:47:00;;;;;;;6.35;5.18;;;;;;;;;;6217320;23;20083;-78
2022/05/12 01:49:27;;;;;;;7.07;5.72;;;;;;;;;;6217644;23;20001;-78
2022/05/12 01:51:57;;;;;;;15.63;12.50;;;;;;;;;;6217470;23;20083;-77
2022/05/12 01:54:24;;;;;;;7.95;7.25;;;;;;;;;;6218071;23;20072;-78
2022/05/12 01:56:50;;;;;;;17.55;15.65;;;;;;;;;;6217399;23;20047;-78
2022/05/12 01:59:18;;;;;;;7.07;6.38;;;;;;;;;;6217429;23;20023;-78
2022/05/12 02:01:44;;;;;;;8.32;6.22;;;;;;;;;;6217685;23;20003;-77
2022/05/12 02:04:10;;;;;;;6.15;5.55;;;;;;;;;;6217683;23;20070;-78
2022/05/12 02:06:37;;;;;;;6.28;5.68;;;;;;;;;;6217643;23;20035;-80
2022/05/12 02:09:04;;;;;;;6.75;5.95;;;;;;;;;;6217235;23;20043;-77
2022/05/12 02:11:30;;;;;;;6.70;6.00;;;;;;;;;;6217524;23;20001;-78
2022/05/12 02:13:56;;;;;;;7.57;5.82;;;;;;;;;;6217250;23;20001;-78
2022/05/12 02:16:24;;;;;;;6.35;5.60;;;;;;;;;;6190814;23;20004;-78
2022/05/12 02:18:51;;;;;;;7.25;5.95;;;;;;;;;;6217322;23;20305;-78
2022/05/12 02:21:17;;;;;;;6.60;5.80;;;;;;;;;;6217303;23;20004;-77
2022/05/12 02:23:43;;;;;;;6.47;5.57;;;;;;;;;;6217360;23;20035;-77
2022/05/12 02:26:10;;;;;;;7.45;6.15;;;;;;;;;;6215373;23;20005;-78
2022/05/12 02:28:36;;;;;;;7.07;6.22;;;;;;;;;;6215940;23;20001;-77
2022/05/12 02:31:02;;;;;;;7.03;5.47;;;;;;;;;;6215552;23;20071;-78
2022/05/12 02:33:28;;;;;;;5.60;5.10;;;;;;;;;;6215846;23;20011;-78
2022/05/12 02:35:55;;;;;;;6.53;5.75;;;;;;;;;;6215758;23;20001;-79
2022/05/12 02:38:22;;;;;;;5.97;5.38;;;;;;;;;;6215505;23;20055;-77
2022/05/12 02:40:48;;;;;;;6.80;5.63;;;;;;;;;;6215810;23;20004;-77
2022/05/12 02:46:00;;;;;;;6.63;6.03;;;;;;;;;;6215593;23;20450;-78
2022/05/12 02:48:31;;;;;;;6.65;5.90;;;;;;;;;;6215718;23;20092;-77
2022/05/12 02:50:58;;;;;;;5.90;5.30;;;;;;;;;;6215361;23;20005;-78
2022/05/12 02:53:24;;;;;;;5.80;5.20;;;;;;;;;;6215683;23;20009;-77
2022/05/12 02:55:51;;;;;;;6.18;5.63;;;;;;;;;;6215062;23;20017;-78
2022/05/12 02:58:17;;;;;;;6.88;6.18;;;;;;;;;;6188855;23;20340;-79
2022/05/12 03:00:43;;;;;;;7.00;6.30;;;;;;;;;;6215536;23;20088;-78
2022/05/12 03:03:10;;;;;;;7.47;6.55;;;;;;;;;;6215347;23;20051;-78
2022/05/12 03:05:37;;;;;;;9.98;6.65;;;;;;;;;;6215381;23;20004;-78
2022/05/12 03:08:04;;;;;;;8.63;6.82;;;;;;;;;;6215043;23;20011;-78
2022/05/12 03:10:31;;;;;;;13.00;7.10;;;;;;;;;;6215466;23;20356;-78
2022/05/12 03:12:57;;;;;;;8.52;6.63;;;;;;;;;;6215265;23;20000;-79
2022/05/12 03:15:24;;;;;;;10.18;6.88;;;;;;;;;;6215645;23;20075;-79
2022/05/12 03:17:50;;;;;;;7.60;5.82;;;;;;;;;;6215136;23;20063;-78
2022/05/12 03:20:17;;;;;;;10.18;6.65;;;;;;;;;;6215328;23;20447;-78
2022/05/12 03:22:43;;;;;;;7.53;5.88;;;;;;;;;;6215600;23;20008;-78
2022/05/12 03:25:11;;;;;;;6.22;5.63;;;;;;;;;;6214845;23;20032;-78
2022/05/12 03:27:38;;;;;;;7.43;5.80;;;;;;;;;;6215268;23;20063;-77
2022/05/12 03:30:04;;;;;;;7.80;5.97;;;;;;;;;;6215032;23;20457;-78
2022/05/12 03:32:30;;;;;;;11.05;6.40;;;;;;;;;;6215495;23;20005;-77
2022/05/12 03:34:57;;;;;;;6.38;5.68;;;;;;;;;;6215333;23;20028;-78
2022/05/12 03:37:23;;;;;;;8.07;5.90;;;;;;;;;;6215501;23;20039;-78
2022/05/12 03:39:49;;;;;;;7.85;6.07;;;;;;;;;;6215352;23;20098;-79
2022/05/12 03:42:16;;;;;;;8.50;5.85;;;;;;;;;;6215180;23;20078;-77
2022/05/12 03:45:16;;;;;;;9.20;5.82;;;;;;;;;;6215530;23;20012;-80
2022/05/12 03:47:36;;;;;;;7.85;5.88;;;;;;;;;;6212393;23;20511;-80
2022/05/12 03:50:21;;;;;;;8.05;6.20;;;;;;;;;;6215322;23;20027;-80
2022/05/12 03:52:48;;;;;;;8.00;7.20;;;;;;;;;;6215244;23;19997;-81
2022/05/12 03:55:16;;;;;;;8.70;6.50;;;;;;;;;;6188066;23;20024;-79
2022/05/12 03:57:44;;;;;;;6.45;5.78;;;;;;;;;;6215197;23;20000;-79
2022/05/12 04:00:11;;;;;;;8.20;6.07;;;;;;;;;;6214965;23;20000;-80
2022/05/12 04:02:38;;;;;;;9.73;5.63;;;;;;;;;;6215188;23;20459;-79
2022/05/12 04:05:05;;;;;;;11.63;6.07;;;;;;;;;;6215276;23;20009;-79
2022/05/12 04:07:31;;;;;;;10.93;6.47;;;;;;;;;;6214914;23;20004;-79
2022/05/12 04:10:00;;;;;;;8.65;6.07;;;;;;;;;;6188498;23;20062;-80
2022/05/12 04:12:26;;;;;;;9.55;6.60;;;;;;;;;;6215204;23;20001;-79
2022/05/12 04:14:52;;;;;;;7.03;5.80;;;;;;;;;;6215519;23;20477;-80
2022/05/12 04:17:18;;;;;;;9.60;6.82;;;;;;;;;;6214333;23;20023;-82
2022/05/12 04:19:45;;;;;;;6.55;5.85;;;;;;;;;;6188588;23;20036;-82
2022/05/12 04:22:13;;;;;;;7.15;5.90;;;;;;;;;;6214485;23;20000;-81
2022/05/12 04:24:41;;;;;;;7.20;5.70;;;;;;;;;;6187089;23;20009;-82
2022/05/12 04:27:08;;;;;;;7.90;6.50;;;;;;;;;;6187349;23;20475;-82
2022/05/12 04:29:44;;;;;;;8.82;6.80;;;;;;;;;;6187364;23;20514;-82
2022/05/12 04:32:12;;;;;;;9.57;6.57;;;;;;;;;;6213966;23;20005;-81
2022/05/12 04:37:28;;;;;;;8.60;6.90;;;;;;;;;;6213843;23;20063;-82
2022/05/12 04:39:54;;;;;;;8.02;6.40;;;;;;;;;;6187777;23;20009;-84
2022/05/12 04:42:20;;;;;;;6.90;5.63;;;;;;;;;;6214404;23;20399;-85
2022/05/12 04:44:46;;;;;;;7.25;5.72;;;;;;;;;;6188267;23;20015;-78
2022/05/12 04:47:12;;;;;;;6.57;5.43;;;;;;;;;;6187475;23;20001;-82
2022/05/12 04:49:38;;;;;;;13.10;5.82;;;;;;;;;;6187759;23;20008;-81
2022/05/12 04:52:05;;;;;;;7.93;5.47;;;;;;;;;;6214303;23;20004;-82
2022/05/12 04:54:31;;;;;;;6.63;5.82;;;;;;;;;;6214652;23;20464;-79
2022/05/12 04:56:57;;;;;;;7.97;5.97;;;;;;;;;;6214939;23;20007;-81
2022/05/12 04:59:23;;;;;;;8.13;5.80;;;;;;;;;;6214286;23;20001;-79
2022/05/12 05:01:49;;;;;;;8.00;6.28;;;;;;;;;;6214229;23;20079;-82
2022/05/12 05:04:15;;;;;;;7.50;6.10;;;;;;;;;;6214137;23;20091;-82
2022/05/12 05:06:42;;;;;;;9.02;6.55;;;;;;;;;;6214429;23;20011;-80
2022/05/12 05:09:08;;;;;;;9.98;7.13;;;;;;;;;;6214081;23;20001;-82
2022/05/12 05:11:37;;;;;;;12.73;11.40;;;;;;;;;;6214329;23;20001;-82
2022/05/12 05:14:04;;;;;;;15.30;11.70;;;;;;;;;;6187115;23;20328;-82
2022/05/12 05:16:30;;;;;;;19.67;13.52;;;;;;;;;;6214435;23;20032;-83
2022/05/12 05:18:56;;;;;;;16.58;12.40;;;;;;;;;;6187868;23;20020;-82
2022/05/12 05:21:22;;;;;;;9.40;7.53;;;;;;;;;;6187708;23;20009;-87
2022/05/12 05:23:49;;;;;;;9.05;8.00;;;;;;;;;;6214294;23;20036;-79
2022/05/12 05:26:15;;;;;;;7.00;5.95;;;;;;;;;;6213503;23;20011;-81
2022/05/12 05:28:41;;;;;;;6.88;4.55;;;;;;;;;;6187886;23;20004;-82
2022/05/12 05:31:08;;;;;;;10.13;5.82;;;;;;;;;;6187419;23;20005;-81
2022/05/12 05:33:34;;;;;;;20.48;7.88;;;;;;;;;;6214042;23;20008;-81
2022/05/12 05:36:00;;;;;;;9.45;6.72;;;;;;;;;;6182293;23;20439;-82
2022/05/12 05:38:26;;;;;;;13.25;7.03;;;;;;;;;;6209269;23;20000;-85
2022/05/12 05:40:52;;;;;;;11.10;6.60;;;;;;;;;;6185256;23;20004;-80
2022/05/12 05:43:19;;;;;;;9.65;6.00;;;;;;;;;;6184161;23;20020;-83
2022/05/12 05:45:46;;;;;;;10.20;5.47;;;;;;;;;;6184609;23;20020;-81
2022/05/12 05:48:12;;;;;;;9.98;8.07;;;;;;;;;;6211651;23;20062;-80
2022/05/12 05:53:26;;;;;;;11.68;10.45;;;;;;;;;;6212388;23;20015;-83
2022/05/12 05:56:00;;;;;;;11.40;9.25;;;;;;;;;;6185179;23;20043;-81
2022/05/12 05:58:27;;;;;;;9.97;7.93;;;;;;;;;;6186333;23;20051;-82
2022/05/12 06:00:54;;;;;;;21.48;11.10;;;;;;;;;;6213331;23;20311;-79
2022/05/12 06:03:21;;;;;;;12.07;7.93;;;;;;;;;;6213519;23;20086;-80
2022/05/12 06:05:47;;;;;;;12.30;8.00;;;;;;;;;;6214541;23;20007;-81
2022/05/12 06:08:15;;;;;;;8.77;7.85;;;;;;;;;;6214417;23;20008;-78
2022/05/12 06:10:42;;;;;;;17.60;9.20;;;;;;;;;;6213161;23;20009;-82
2022/05/12 06:13:09;;;;;;;9.70;7.05;;;;;;;;;;6214055;23;20008;-79
2022/05/12 06:15:35;;;;;;;7.82;6.32;;;;;;;;;;6186992;23;20092;-78
2022/05/12 06:18:12;;;;;;;7.50;6.32;;;;;;;;;;6214017;23;20050;-78
2022/05/12 06:20:39;;;;;;;8.30;6.57;;;;;;;;;;6214287;23;20024;-83
2022/05/12 06:23:05;;;;;;;8.90;6.13;;;;;;;;;;6186868;23;20020;-82
2022/05/12 06:25:31;;;;;;;7.32;5.82;;;;;;;;;;6214253;23;20016;-82
2022/05/12 06:27:57;;;;;;;13.52;7.05;;;;;;;;;;6214022;23;20001;-83
2022/05/12 06:30:24;;;;;;;6.63;5.40;;;;;;;;;;6214239;23;20005;-81
2022/05/12 06:32:51;;;;;;;10.68;5.57;;;;;;;;;;6187462;23;20012;-81
2022/05/12 06:35:20;;;;;;;8.38;5.57;;;;;;;;;;6187166;23;20444;-82
2022/05/12 06:37:46;;;;;;;6.03;4.95;;;;;;;;;;6186487;23;20013;-83
2022/05/12 06:40:12;;;;;;;6.72;4.80;;;;;;;;;;6186225;23;20004;-82
2022/05/12 06:42:41;;;;;;;7.45;4.35;;;;;;;;;;6213888;23;19997;-82
2022/05/12 06:45:08;;;;;;;9.70;4.82;;;;;;;;;;6213254;23;20020;-82
2022/05/12 06:47:34;;;;;;;4.90;4.32;;;;;;;;;;6187133;23;20425;-89
2022/05/12 06:50:03;;;;;;;6.25;4.40;;;;;;;;;;6214654;23;20008;-84
2022/05/12 06:52:29;;;;;;;6.32;4.70;;;;;;;;;;6213824;23;20000;-84
2022/05/12 06:54:55;;;;;;;8.75;4.93;;;;;;;;;;6213860;23;20016;-83
2022/05/12 06:57:22;;;;;;;5.38;4.43;;;;;;;;;;6213880;23;20023;-83
2022/05/12 06:59:50;;;;;;;6.68;4.55;;;;;;;;;;6216443;23;20000;-81
2022/05/12 07:02:16;;;;;;;6.68;4.88;;;;;;;;;;6214715;23;20103;-80
2022/05/12 07:04:45;;;;;;;6.40;4.55;;;;;;;;;;6214042;23;20436;-82
2022/05/12 07:07:12;;;;;;;6.72;4.88;;;;;;;;;;6186827;23;20004;-81
2022/05/12 07:09:38;;;;;;;8.48;6.28;;;;;;;;;;6213972;23;20080;-81
2022/05/12 07:12:05;;;;;;;7.38;5.50;;;;;;;;;;6213162;23;20075;-81
2022/05/12 07:14:33;;;;;;;8.02;5.13;;;;;;;;;;6213637;23;20428;-83
2022/05/12 07:17:01;;;;;;;7.20;5.03;;;;;;;;;;6162574;23;20107;-85
2022/05/12 07:19:27;;;;;;;7.20;5.47;;;;;;;;;;6186100;23;20087;-82
2022/05/12 07:27:22;;;;;;;7.32;4.80;;;;;;;;;;6213142;23;19908;-80
2022/05/12 07:29:48;;;;;;;142.48;49.85;;;;;;;;;;6213227;23;20082;-82
2022/05/12 07:32:14;;;;;;;67.68;27.42;;;;;;;;;;6213011;23;20004;-80
2022/05/12 07:34:41;;;;;;;14.55;7.90;;;;;;;;;;6213873;23;20062;-80
2022/05/12 07:37:07;;;;;;;66.72;23.58;;;;;;;;;;6213409;23;20001;-81
2022/05/12 07:39:35;;;;;;;47.45;18.67;;;;;;;;;;6213300;23;20008;-80
2022/05/12 07:42:02;;;;;;;41.80;17.10;;;;;;;;;;6213549;23;20013;-81
2022/05/12 07:44:34;;;;;;;38.35;14.55;;;;;;;;;;6185891;23;20017;-80
2022/05/12 07:47:04;;;;;;;27.27;11.73;;;;;;;;;;6186695;23;20008;-82
2022/05/12 07:49:35;;;;;;;40.17;32.25;;;;;;;;;;6213621;23;20020;-83
2022/05/12 07:52:02;;;;;;;20.23;10.95;;;;;;;;;;6213750;23;20519;-79
2022/05/12 07:54:28;;;;;;;17.17;8.02;;;;;;;;;;6213580;23;20004;-79
2022/05/12 07:56:55;;;;;;;21.40;10.35;;;;;;;;;;6213668;23;20016;-78
2022/05/12 07:59:21;;;;;;;12.82;7.03;;;;;;;;;;6213376;23;20014;-82
2022/05/12 08:01:47;;;;;;;16.35;6.82;;;;;;;;;;6213537;23;20008;-83
2022/05/12 08:04:14;;;;;;;9.57;5.57;;;;;;;;;;6213609;23;20376;-81
2022/05/12 08:06:41;;;;;;;9.52;5.22;;;;;;;;;;6213671;23;20091;-81
2022/05/12 08:09:07;;;;;;;6.47;3.15;;;;;;;;;;6213423;23;20005;-82
2022/05/12 08:11:34;;;;;;;26.23;9.57;;;;;;;;;;6186421;23;20004;-81
2022/05/12 08:14:00;;;;;;;38.03;15.65;;;;;;;;;;6214066;23;20005;-79
2022/05/12 08:16:27;;;;;;;40.78;16.70;;;;;;;;;;6186429;23;20012;-81
2022/05/12 08:18:53;;;;;;;79.47;31.65;;;;;;;;;;6212767;23;20012;-83
2022/05/12 08:21:20;;;;;;;54.03;21.63;;;;;;;;;;6212893;23;20019;-79
2022/05/12 08:23:47;;;;;;;55.35;21.92;;;;;;;;;;6213406;23;20059;-83
2022/05/12 08:26:13;;;;;;;12.63;6.95;;;;;;;;;;6214910;23;20005;-81
2022/05/12 08:28:50;;;;;;;11.13;6.30;;;;;;;;;;6216264;23;20012;-82
2022/05/12 08:31:20;;;;;;;23.38;11.82;;;;;;;;;;6186201;23;20000;-83
2022/05/12 08:33:46;;;;;;;24.35;9.85;;;;;;;;;;6187562;23;20494;-84
2022/05/12 08:36:12;;;;;;;34.58;14.82;;;;;;;;;;6187224;23;20015;-84
2022/05/12 08:38:40;;;;;;;29.00;12.43;;;;;;;;;;6213539;23;20009;-83
2022/05/12 08:41:12;;;;;;;18.85;9.23;;;;;;;;;;6213746;23;20004;-83
2022/05/12 08:43:57;;;;;;;18.08;8.88;;;;;;;;;;6211878;23;20023;-82
2022/05/12 08:46:26;;;;;;;18.50;9.15;;;;;;;;;;6150204;23;20337;-84
2022/05/12 08:48:58;;;;;;;15.48;7.03;;;;;;;;;;6150170;23;20044;-84
2022/05/12 08:51:24;;;;;;;16.30;6.93;;;;;;;;;;6150667;23;20028;-84
2022/05/12 08:53:54;;;;;;;14.80;6.82;;;;;;;;;;6150294;23;20006;-84
2022/05/12 08:56:22;;;;;;;10.95;5.20;;;;;;;;;;6150292;23;20145;-86
2022/05/12 08:58:49;;;;;;;10.65;6.13;;;;;;;;;;6149873;23;20085;-83
2022/05/12 09:01:18;;;;;;;10.55;6.35;;;;;;;;;;6150018;23;20437;-87
2022/05/12 09:04:03;;;;;;;7.53;4.28;;;;;;;;;;6151547;23;20060;-87
2022/05/12 09:06:48;;;;;;;7.60;3.72;;;;;;;;;;6125708;23;20064;-80
2022/05/12 09:09:23;;;;;;;6.88;5.38;;;;;;;;;;6150424;23;20491;-81
2022/05/12 09:12:07;;;;;;;7.28;4.53;;;;;;;;;;6150087;23;20040;-81
2022/05/12 09:14:36;;;;;;;5.68;3.85;;;;;;;;;;6150707;23;20009;-83
2022/05/12 09:17:02;;;;;;;6.40;3.83;;;;;;;;;;6172569;23;20013;-80
2022/05/12 09:19:29;;;;;;;4.47;3.50;;;;;;;;;;6213028;23;20012;-82
2022/05/12 09:21:56;;;;;;;6.18;4.05;;;;;;;;;;6186962;23;20005;-82
2022/05/12 09:24:22;;;;;;;6.50;3.88;;;;;;;;;;6212501;23;20010;-83
2022/05/12 09:26:50;;;;;;;4.85;3.42;;;;;;;;;;6212707;23;20005;-82
2022/05/12 09:29:20;;;;;;;8.45;4.15;;;;;;;;;;6185759;23;20008;-84
2022/05/12 09:31:49;;;;;;;5.78;3.20;;;;;;;;;;6185300;23;20016;-82
2022/05/12 09:34:33;;;;;;;6.28;4.15;;;;;;;;;;6186389;23;20394;-83
2022/05/12 09:37:19;;;;;;;53.55;19.77;;;;;;;;;;6214766;23;20051;-85
2022/05/12 09:40:04;;;;;;;84.88;30.08;;;;;;;;;;6213728;23;20008;-85
2022/05/12 09:42:34;;;;;;;15.68;6.60;;;;;;;;;;6214574;23;20000;-84
2022/05/12 09:45:02;;;;;;;33.28;11.50;;;;;;;;;;6187429;23;20008;-81
2022/05/12 09:47:31;;;;;;;34.25;11.88;;;;;;;;;;6213994;23;20136;-81
2022/05/12 09:50:16;;;;;;;56.17;20.48;;;;;;;;;;6214473;23;20477;-83
2022/05/12 09:52:57;;;;;;;127.72;43.67;;;;;;;;;;6188889;23;20000;-84
2022/05/12 09:55:28;;;;;;;144.68;48.00;;;;;;;;;;6189074;23;20027;-83
2022/05/12 09:57:54;;;;;;;77.90;28.70;;;;;;;;;;6214546;23;20057;-82
2022/05/12 10:00:42;;;;;;;346.05;121.13;;;;;;;;;;6213887;23;20009;-82
2022/05/12 10:09:15;;;;;;;30.35;12.35;;;;;;;;;;6214825;23;20068;-80
2022/05/12 10:12:00;;;;;;;50.15;18.88;;;;;;;;;;6214166;23;20004;-83
2022/05/12 10:14:34;;;;;;;113.28;42.45;;;;;;;;;;6186377;23;20012;-82
2022/05/12 10:17:07;;;;;;;;;;;;;;;;;;6215188;23;20009;-82
2022/05/12 10:19:36;;;;;;;14.25;6.85;;;;;;;;;;6184481;23;19904;-81
2022/05/12 10:22:21;;;;;;;38.65;14.80;;;;;;;;;;6188059;23;20440;-84
2022/05/12 10:25:04;;;;;;;45.45;17.00;;;;;;;;;;6187890;23;20032;-86
2022/05/12 10:27:52;;;;;;;38.10;13.95;;;;;;;;;;6187444;23;20095;-84
2022/05/12 10:30:27;;;;;;;12.02;5.00;;;;;;;;;;6214629;23;20005;-84
2022/05/12 10:33:12;;;;;;;12.27;6.88;;;;;;;;;;6212924;23;20043;-80
2022/05/12 10:35:38;;;;;;;19.27;7.70;;;;;;;;;;6214161;23;20005;-82
2022/05/12 10:38:04;;;;;;;5.57;4.18;;;;;;;;;;6214105;23;20023;-83
2022/05/12 10:40:37;;;;;;;6.88;4.68;;;;;;;;;;6212594;23;20005;-81
2022/05/12 10:43:22;;;;;;;6.93;4.22;;;;;;;;;;6213792;23;20658;-82
2022/05/12 10:46:11;;;;;;;7.40;4.53;;;;;;;;;;6213321;23;20062;-83
2022/05/12 10:48:58;;;;;;;12.73;4.20;;;;;;;;;;6214571;23;20046;-83
2022/05/12 10:51:43;;;;;;;95.05;35.65;;;;;;;;;;6214226;23;20001;-80
2022/05/12 10:54:19;;;;;;;106.90;39.03;;;;;;;;;;6214250;23;20332;-83
2022/05/12 10:57:04;;;;;;;22.25;8.98;;;;;;;;;;6214011;23;20043;-81
2022/05/12 10:59:47;;;;;;;4.38;3.15;;;;;;;;;;6213621;23;20012;-83
2022/05/12 11:02:32;;;;;;;6.43;3.92;;;;;;;;;;6213791;23;20005;-82
2022/05/12 11:05:17;;;;;;;9.32;5.45;;;;;;;;;;6214463;23;20431;-83
2022/05/12 11:07:48;;;;;;;34.67;13.38;;;;;;;;;;6214774;23;20005;-82
2022/05/12 11:10:21;;;;;;;27.13;10.65;;;;;;;;;;6213890;23;20428;-80
2022/05/12 11:12:49;;;;;;;8.52;4.18;;;;;;;;;;6213550;23;20766;-81
2022/05/12 11:15:23;;;;;;;7.93;4.30;;;;;;;;;;6213912;23;20008;-81
2022/05/12 11:18:07;;;;;;;7.17;3.10;;;;;;;;;;6213527;23;20005;-80
2022/05/12 11:20:36;;;;;;;15.27;6.47;;;;;;;;;;6214143;23;20222;-83
2022/05/12 11:23:37;;;;;;;5.53;2.83;;;;;;;;;;6187449;23;20056;-82
2022/05/12 11:26:12;;;;;;;4.43;2.78;;;;;;;;;;6092451;23;20497;-80
2022/05/12 11:31:50;;;;;;;17.63;7.93;;;;;;;;;;6092183;23;20117;-84
2022/05/12 11:34:18;;;;;;;23.00;10.23;;;;;;;;;;6154655;23;20759;-79
2022/05/12 11:36:45;;;;;;;24.55;11.48;;;;;;;;;;6213907;23;20041;-77
2022/05/12 11:39:30;;;;;;;78.93;30.40;;;;;;;;;;6212821;23;20001;-80
2022/05/12 11:42:17;;;;;;;114.75;42.60;;;;;;;;;;6213748;23;20012;-78
2022/05/12 11:44:55;;;;;;;20.98;9.20;;;;;;;;;;6186271;23;20028;-82
2022/05/12 11:47:27;;;;;;;21.80;9.45;;;;;;;;;;6213954;23;20337;-80
2022/05/12 11:49:56;;;;;;;13.82;6.95;;;;;;;;;;6214116;23;20004;-80
2022/05/12 11:52:42;;;;;;;61.85;23.55;;;;;;;;;;6214733;23;20324;-78
2022/05/12 11:55:21;;;;;;;29.15;11.88;;;;;;;;;;6214552;23;20390;-81
2022/05/12 11:57:57;;;;;;;8.75;4.78;;;;;;;;;;6213533;23;20005;-78
2022/05/12 12:00:32;;;;;;;12.85;5.95;;;;;;;;;;6214970;23;20074;-79
2022/05/12 12:03:20;;;;;;;12.57;6.82;;;;;;;;;;6214083;23;20074;-76
2022/05/12 12:05:49;;;;;;;7.20;3.10;;;;;;;;;;6213891;23;20005;-81
2022/05/12 12:08:34;;;;;;;8.63;6.50;;;;;;;;;;6188117;23;20008;-81
2022/05/12 12:11:20;;;;;;;7.80;5.35;;;;;;;;;;6213874;23;20004;-78
2022/05/12 12:13:47;;;;;;;7.80;4.18;;;;;;;;;;6212686;23;20055;-77
2022/05/12 12:16:21;;;;;;;3.28;2.97;;;;;;;;;;6214382;23;20008;-78
2022/05/12 12:18:58;;;;;;;5.13;2.88;;;;;;;;;;6214566;23;20333;-76
2022/05/12 12:21:43;;;;;;;6.38;3.58;;;;;;;;;;6184924;23;20004;-78
2022/05/12 12:24:21;;;;;;;4.45;3.28;;;;;;;;;;6213271;23;20326;-77
2022/05/12 12:26:50;;;;;;;3.92;3.22;;;;;;;;;;6214365;23;20008;-78
2022/05/12 12:29:20;;;;;;;7.95;6.78;;;;;;;;;;6213575;23;20421;-78
2022/05/12 12:31:51;;;;;;;5.55;3.58;;;;;;;;;;6213398;23;20006;-81
2022/05/12 12:34:31;;;;;;;3.50;3.20;;;;;;;;;;6214676;23;20004;-78
2022/05/12 12:37:05;;;;;;;3.53;2.80;;;;;;;;;;6213657;23;20008;-82
2022/05/12 12:39:50;;;;;;;4.10;3.08;;;;;;;;;;6213316;23;20031;-80
2022/05/12 12:42:16;;;;;;;4.78;3.40;;;;;;;;;;6214289;23;20059;-79
2022/05/12 12:44:49;;;;;;;3.97;3.20;;;;;;;;;;6212941;23;20123;-80
2022/05/12 12:47:24;;;;;;;4.07;3.00;;;;;;;;;;6214016;23;20009;-81
2022/05/12 12:50:06;;;;;;;6.47;3.45;;;;;;;;;;6213376;23;20004;-78
2022/05/12 12:52:39;;;;;;;8.10;2.95;;;;;;;;;;6212706;23;20071;-82
2022/05/12 12:58:00;;;;;;;5.82;4.22;;;;;;;;;;6213369;23;20112;-82
2022/05/12 13:00:28;;;;;;;15.70;6.22;;;;;;;;;;6188164;23;20012;-82
2022/05/12 13:03:28;;;;;;;4.03;3.63;;;;;;;;;;6214132;23;20008;-80
2022/05/12 13:06:05;;;;;;;7.05;3.10;;;;;;;;;;6213936;23;20008;-80
2022/05/12 13:08:31;;;;;;;5.13;3.00;;;;;;;;;;6213927;23;20771;-80
2022/05/12 13:11:02;;;;;;;5.72;2.97;;;;;;;;;;6213682;23;20005;-82
2022/05/12 13:13:29;;;;;;;3.75;3.10;;;;;;;;;;6213766;23;20027;-81
2022/05/12 13:15:59;;;;;;;7.70;3.65;;;;;;;;;;6214277;23;20007;-81
2022/05/12 13:18:35;;;;;;;7.35;4.20;;;;;;;;;;6214419;23;20008;-70
2022/05/12 13:21:03;;;;;;;3.10;2.60;;;;;;;;;;6212674;23;20055;-69
2022/05/12 13:23:31;;;;;;;7.93;4.47;;;;;;;;;;6214050;23;20008;-71
2022/05/12 13:26:05;;;;;;;5.97;3.45;;;;;;;;;;6187297;23;20015;-72
2022/05/12 13:28:36;;;;;;;4.97;2.70;;;;;;;;;;6213489;23;20012;-71
2022/05/12 13:31:14;;;;;;;5.38;2.75;;;;;;;;;;6213334;23;20015;-71
2022/05/12 13:33:54;;;;;;;4.88;3.35;;;;;;;;;;6187530;23;20340;-80
2022/05/12 13:36:39;;;;;;;4.60;2.85;;;;;;;;;;6214223;23;20004;-80
2022/05/12 13:39:05;;;;;;;3.90;2.45;;;;;;;;;;6214540;23;20456;-80
2022/05/12 13:41:34;;;;;;;7.00;3.17;;;;;;;;;;6214992;23;20004;-79
2022/05/12 13:44:08;;;;;;;43.78;6.90;;;;;;;;;;6213555;23;20005;-81
2022/05/12 13:46:36;;;;;;;6.90;3.73;;;;;;;;;;6214358;23;20004;-82
2022/05/12 13:49:09;;;;;;;3.70;3.40;;;;;;;;;;6214083;23;20001;-79
2022/05/12 13:51:47;;;;;;;3.28;2.83;;;;;;;;;;6214269;23;20103;-78
2022/05/12 13:54:25;;;;;;;2.65;2.30;;;;;;;;;;6214254;23;20058;-80
2022/05/12 13:56:52;;;;;;;3.20;2.40;;;;;;;;;;6214752;23;20035;-81
2022/05/12 13:59:26;;;;;;;3.95;2.55;;;;;;;;;;6214096;23;20092;-82
2022/05/12 14:01:54;;;;;;;4.38;2.40;;;;;;;;;;6214421;23;20447;-81
2022/05/12 14:04:21;;;;;;;3.30;2.60;;;;;;;;;;6214122;23;20432;-82
2022/05/12 14:06:53;;;;;;;3.42;2.47;;;;;;;;;;6214756;23;20005;-80
2022/05/12 14:09:21;;;;;;;3.60;2.92;;;;;;;;;;6214317;23;20004;-81
2022/05/12 14:12:09;;;;;;;3.88;2.88;;;;;;;;;;6187384;23;20328;-80
2022/05/12 14:20:24;;;;;;;3.83;2.45;;;;;;;;;;6161584;23;20013;-80
2022/05/12 14:22:51;;;;;;;3.42;2.53;;;;;;;;;;6204121;23;20008;-80
2022/05/12 14:25:17;;;;;;;3.88;2.40;;;;;;;;;;6216062;23;20011;-81
2022/05/12 14:27:44;;;;;;;3.60;2.28;;;;;;;;;;6215729;23;20000;-80
2022/05/12 14:30:10;;;;;;;3.67;2.40;;;;;;;;;;6215812;23;20471;-80
2022/05/12 14:32:46;;;;;;;2.58;1.92;;;;;;;;;;6216358;23;20075;-80
2022/05/12 14:35:13;;;;;;;2.63;2.00;;;;;;;;;;6215713;23;20337;-80
2022/05/12 14:37:39;;;;;;;3.97;2.67;;;;;;;;;;6216368;23;20489;-80
2022/05/12 14:40:06;;;;;;;3.95;2.30;;;;;;;;;;6215893;23;20076;-80
2022/05/12 14:42:33;;;;;;;3.03;2.00;;;;;;;;;;6189249;23;20008;-80
2022/05/12 14:45:00;;;;;;;3.58;2.35;;;;;;;;;;6215726;23;20075;-80
2022/05/12 14:47:30;;;;;;;2.40;2.15;;;;;;;;;;6216033;23;20419;-81
2022/05/12 14:49:57;;;;;;;2.65;2.17;;;;;;;;;;6215788;23;20008;-80
2022/05/12 14:52:27;;;;;;;3.28;2.25;;;;;;;;;;6216067;23;20071;-80
2022/05/12 14:54:54;;;;;;;4.07;2.20;;;;;;;;;;6215013;23;20482;-80
2022/05/12 14:57:21;;;;;;;3.63;2.10;;;;;;;;;;6212493;23;20004;-80
2022/05/12 14:59:48;;;;;;;5.10;2.63;;;;;;;;;;6215597;23;20436;-80
2022/05/12 15:02:16;;;;;;;3.92;2.60;;;;;;;;;;6189715;23;20011;-79
2022/05/12 15:04:43;;;;;;;3.83;2.25;;;;;;;;;;6215556;23;20013;-80
2022/05/12 15:07:12;;;;;;;3.30;2.47;;;;;;;;;;6189335;23;20404;-80
2022/05/12 15:09:38;;;;;;;2.67;2.47;;;;;;;;;;6215914;23;20004;-79
2022/05/12 15:12:05;;;;;;;3.15;2.40;;;;;;;;;;6215564;23;20325;-79
2022/05/12 15:14:31;;;;;;;3.13;2.10;;;;;;;;;;6188773;23;20048;-79
2022/05/12 15:16:58;;;;;;;3.35;2.38;;;;;;;;;;6216303;23;20005;-79
2022/05/12 15:19:24;;;;;;;3.88;2.78;;;;;;;;;;6215220;23;20016;-80
2022/05/12 15:21:50;;;;;;;2.63;2.13;;;;;;;;;;6215816;23;20008;-81
2022/05/12 15:24:16;;;;;;;2.97;2.00;;;;;;;;;;6214876;23;20438;-79
2022/05/12 15:26:43;;;;;;;4.15;1.70;;;;;;;;;;6215137;23;20435;-81
2022/05/12 15:29:10;;;;;;;5.53;1.83;;;;;;;;;;6215427;23;20001;-80